sensor_id;sensor_type;location;lat;lon;timestamp;P1;durP1;ratioP1;P2;durP2;ratioP2
42018;SDS011;27703;51.980;5.848;2023-09-12T00:00:47;20.30;;;15.73;;
42018;SDS011;27703;51.980;5.848;2023-09-12T00:03:12;17.95;;;15.07;;
42018;SDS011;27703;51.980;5.848;2023-09-12T00:05:38;20.77;;;15.35;;
42018;SDS011;27703;51.980;5.848;2023-09-12T00:08:04;18.30;;;15.38;;
42018;SDS011;27703;51.980;5.848;2023-09-12T00:10:30;19.33;;;16.15;;
42018;SDS011;27703;51.980;5.848;2023-09-12T00:12:56;18.85;;;16.45;;
42018;SDS011;27703;51.980;5.848;2023-09-12T00:15:23;18.00;;;16.00;;
42018;SDS011;27703;51.980;5.848;2023-09-12T00:17:49;19.33;;;15.48;;
42018;SDS011;27703;51.980;5.848;2023-09-12T00:20:14;19.60;;;15.52;;
42018;SDS011;27703;51.980;5.848;2023-09-12T00:22:40;18.40;;;16.02;;
42018;SDS011;27703;51.980;5.848;2023-09-12T00:25:06;17.92;;;14.98;;
42018;SDS011;27703;51.980;5.848;2023-09-12T00:27:31;17.05;;;14.10;;
42018;SDS011;27703;51.980;5.848;2023-09-12T00:29:57;18.77;;;15.70;;
42018;SDS011;27703;51.980;5.848;2023-09-12T00:32:22;19.80;;;14.80;;
42018;SDS011;27703;51.980;5.848;2023-09-12T00:34:48;17.80;;;15.70;;
42018;SDS011;27703;51.980;5.848;2023-09-12T00:37:14;22.30;;;14.68;;
42018;SDS011;27703;51.980;5.848;2023-09-12T00:39:39;19.58;;;15.75;;
42018;SDS011;27703;51.980;5.848;2023-09-12T00:42:05;19.05;;;15.68;;
42018;SDS011;27703;51.980;5.848;2023-09-12T00:44:32;16.92;;;14.73;;
42018;SDS011;27703;51.980;5.848;2023-09-12T00:46:58;17.80;;;15.05;;
42018;SDS011;27703;51.980;5.848;2023-09-12T00:49:25;16.70;;;14.30;;
42018;SDS011;27703;51.980;5.848;2023-09-12T00:51:53;15.07;;;13.48;;
42018;SDS011;27703;51.980;5.848;2023-09-12T00:54:20;15.63;;;14.02;;
42018;SDS011;27703;51.980;5.848;2023-09-12T00:56:45;17.38;;;14.52;;
42018;SDS011;27703;51.980;5.848;2023-09-12T00:59:11;17.90;;;14.60;;
42018;SDS011;27703;51.980;5.848;2023-09-12T01:01:39;16.95;;;15.15;;
42018;SDS011;27703;51.980;5.848;2023-09-12T01:04:04;18.70;;;14.43;;
42018;SDS011;27703;51.980;5.848;2023-09-12T01:06:30;19.33;;;14.45;;
42018;SDS011;27703;51.980;5.848;2023-09-12T01:08:58;17.70;;;13.88;;
42018;SDS011;27703;51.980;5.848;2023-09-12T01:11:25;18.05;;;13.02;;
42018;SDS011;27703;51.980;5.848;2023-09-12T01:13:51;16.17;;;14.38;;
42018;SDS011;27703;51.980;5.848;2023-09-12T01:16:17;14.77;;;13.15;;
42018;SDS011;27703;51.980;5.848;2023-09-12T01:18:42;19.55;;;15.40;;
42018;SDS011;27703;51.980;5.848;2023-09-12T01:26:41;16.02;;;13.25;;
42018;SDS011;27703;51.980;5.848;2023-09-12T01:29:18;14.18;;;12.73;;
42018;SDS011;27703;51.980;5.848;2023-09-12T01:31:46;15.23;;;13.18;;
42018;SDS011;27703;51.980;5.848;2023-09-12T01:34:14;15.63;;;12.68;;
42018;SDS011;27703;51.980;5.848;2023-09-12T01:36:39;16.40;;;14.65;;
42018;SDS011;27703;51.980;5.848;2023-09-12T01:39:05;17.23;;;15.07;;
42018;SDS011;27703;51.980;5.848;2023-09-12T01:41:32;19.98;;;16.45;;
42018;SDS011;27703;51.980;5.848;2023-09-12T01:46:29;17.20;;;13.73;;
42018;SDS011;27703;51.980;5.848;2023-09-12T01:48:56;18.90;;;15.38;;
42018;SDS011;27703;51.980;5.848;2023-09-12T01:51:24;16.15;;;13.13;;
42018;SDS011;27703;51.980;5.848;2023-09-12T01:53:50;16.77;;;14.13;;
42018;SDS011;27703;51.980;5.848;2023-09-12T01:56:17;18.27;;;15.57;;
42018;SDS011;27703;51.980;5.848;2023-09-12T01:58:44;15.85;;;14.13;;
42018;SDS011;27703;51.980;5.848;2023-09-12T02:01:10;14.73;;;13.05;;
42018;SDS011;27703;51.980;5.848;2023-09-12T02:03:36;15.05;;;13.25;;
42018;SDS011;27703;51.980;5.848;2023-09-12T02:06:01;16.65;;;14.30;;
42018;SDS011;27703;51.980;5.848;2023-09-12T02:08:27;15.55;;;13.55;;
42018;SDS011;27703;51.980;5.848;2023-09-12T02:10:53;16.33;;;13.70;;
42018;SDS011;27703;51.980;5.848;2023-09-12T02:13:18;15.65;;;13.50;;
42018;SDS011;27703;51.980;5.848;2023-09-12T02:15:44;16.10;;;13.50;;
42018;SDS011;27703;51.980;5.848;2023-09-12T02:18:09;16.25;;;13.60;;
42018;SDS011;27703;51.980;5.848;2023-09-12T02:20:37;16.45;;;13.90;;
42018;SDS011;27703;51.980;5.848;2023-09-12T02:23:04;15.13;;;13.20;;
42018;SDS011;27703;51.980;5.848;2023-09-12T02:25:30;14.57;;;12.38;;
42018;SDS011;27703;51.980;5.848;2023-09-12T02:27:56;13.65;;;12.23;;
42018;SDS011;27703;51.980;5.848;2023-09-12T02:30:21;15.57;;;12.85;;
42018;SDS011;27703;51.980;5.848;2023-09-12T02:32:47;16.08;;;13.20;;
42018;SDS011;27703;51.980;5.848;2023-09-12T02:35:12;15.70;;;12.90;;
42018;SDS011;27703;51.980;5.848;2023-09-12T02:37:38;13.98;;;12.32;;
42018;SDS011;27703;51.980;5.848;2023-09-12T02:40:04;16.48;;;12.63;;
42018;SDS011;27703;51.980;5.848;2023-09-12T02:42:36;17.52;;;13.73;;
42018;SDS011;27703;51.980;5.848;2023-09-12T02:45:01;13.68;;;12.38;;
42018;SDS011;27703;51.980;5.848;2023-09-12T02:47:27;14.93;;;13.32;;
42018;SDS011;27703;51.980;5.848;2023-09-12T02:49:52;18.30;;;14.05;;
42018;SDS011;27703;51.980;5.848;2023-09-12T02:52:18;14.68;;;12.55;;
42018;SDS011;27703;51.980;5.848;2023-09-12T02:54:44;15.13;;;13.48;;
42018;SDS011;27703;51.980;5.848;2023-09-12T02:57:09;14.80;;;12.35;;
42018;SDS011;27703;51.980;5.848;2023-09-12T02:59:35;13.00;;;11.60;;
42018;SDS011;27703;51.980;5.848;2023-09-12T03:02:00;13.30;;;10.90;;
42018;SDS011;27703;51.980;5.848;2023-09-12T03:04:26;14.07;;;12.57;;
42018;SDS011;27703;51.980;5.848;2023-09-12T03:06:53;13.60;;;12.13;;
42018;SDS011;27703;51.980;5.848;2023-09-12T03:09:18;16.20;;;12.20;;
42018;SDS011;27703;51.980;5.848;2023-09-12T03:11:44;12.15;;;10.88;;
42018;SDS011;27703;51.980;5.848;2023-09-12T03:14:10;13.30;;;11.57;;
42018;SDS011;27703;51.980;5.848;2023-09-12T03:16:35;11.82;;;10.60;;
42018;SDS011;27703;51.980;5.848;2023-09-12T03:19:02;12.73;;;10.27;;
42018;SDS011;27703;51.980;5.848;2023-09-12T03:21:28;11.63;;;10.43;;
42018;SDS011;27703;51.980;5.848;2023-09-12T03:23:54;12.32;;;10.57;;
42018;SDS011;27703;51.980;5.848;2023-09-12T03:26:19;10.73;;;9.68;;
42018;SDS011;27703;51.980;5.848;2023-09-12T03:28:45;10.18;;;9.15;;
42018;SDS011;27703;51.980;5.848;2023-09-12T03:31:14;11.25;;;9.80;;
42018;SDS011;27703;51.980;5.848;2023-09-12T03:33:40;12.15;;;10.60;;
42018;SDS011;27703;51.980;5.848;2023-09-12T03:36:07;12.90;;;11.05;;
42018;SDS011;27703;51.980;5.848;2023-09-12T03:38:33;8.85;;;8.00;;
42018;SDS011;27703;51.980;5.848;2023-09-12T03:41:00;11.65;;;8.82;;
42018;SDS011;27703;51.980;5.848;2023-09-12T03:43:26;12.02;;;9.23;;
42018;SDS011;27703;51.980;5.848;2023-09-12T03:45:51;9.50;;;8.60;;
42018;SDS011;27703;51.980;5.848;2023-09-12T03:48:17;8.77;;;7.90;;
42018;SDS011;27703;51.980;5.848;2023-09-12T03:50:43;9.02;;;7.80;;
42018;SDS011;27703;51.980;5.848;2023-09-12T03:53:10;8.23;;;7.45;;
42018;SDS011;27703;51.980;5.848;2023-09-12T03:55:36;7.65;;;6.93;;
42018;SDS011;27703;51.980;5.848;2023-09-12T03:58:01;8.27;;;7.47;;
42018;SDS011;27703;51.980;5.848;2023-09-12T04:00:27;7.32;;;6.72;;
42018;SDS011;27703;51.980;5.848;2023-09-12T04:02:53;7.63;;;6.82;;
42018;SDS011;27703;51.980;5.848;2023-09-12T04:05:18;8.48;;;6.88;;
42018;SDS011;27703;51.980;5.848;2023-09-12T04:07:44;9.07;;;8.15;;
42018;SDS011;27703;51.980;5.848;2023-09-12T04:10:10;8.65;;;7.78;;
42018;SDS011;27703;51.980;5.848;2023-09-12T04:12:35;9.68;;;8.68;;
42018;SDS011;27703;51.980;5.848;2023-09-12T04:15:01;9.32;;;8.32;;
42018;SDS011;27703;51.980;5.848;2023-09-12T04:17:26;10.63;;;9.52;;
42018;SDS011;27703;51.980;5.848;2023-09-12T04:19:52;9.65;;;8.75;;
42018;SDS011;27703;51.980;5.848;2023-09-12T04:22:17;14.50;;;11.45;;
42018;SDS011;27703;51.980;5.848;2023-09-12T04:24:43;13.20;;;11.05;;
42018;SDS011;27703;51.980;5.848;2023-09-12T04:27:08;11.75;;;10.57;;
42018;SDS011;27703;51.980;5.848;2023-09-12T04:29:34;14.75;;;12.38;;
42018;SDS011;27703;51.980;5.848;2023-09-12T04:32:01;15.13;;;12.90;;
42018;SDS011;27703;51.980;5.848;2023-09-12T04:34:28;18.13;;;12.77;;
42018;SDS011;27703;51.980;5.848;2023-09-12T04:36:53;17.17;;;12.95;;
42018;SDS011;27703;51.980;5.848;2023-09-12T04:39:19;15.07;;;13.45;;
42018;SDS011;27703;51.980;5.848;2023-09-12T04:41:45;17.40;;;13.25;;
42018;SDS011;27703;51.980;5.848;2023-09-12T04:44:11;17.90;;;14.60;;
42018;SDS011;27703;51.980;5.848;2023-09-12T04:46:36;18.88;;;15.32;;
42018;SDS011;27703;51.980;5.848;2023-09-12T04:49:02;18.15;;;15.30;;
42018;SDS011;27703;51.980;5.848;2023-09-12T04:51:28;18.42;;;14.98;;
42018;SDS011;27703;51.980;5.848;2023-09-12T04:53:54;20.25;;;16.27;;
42018;SDS011;27703;51.980;5.848;2023-09-12T04:56:20;26.05;;;17.75;;
42018;SDS011;27703;51.980;5.848;2023-09-12T04:58:45;22.58;;;16.85;;
42018;SDS011;27703;51.980;5.848;2023-09-12T05:01:11;21.67;;;16.25;;
42018;SDS011;27703;51.980;5.848;2023-09-12T05:03:37;22.38;;;15.25;;
42018;SDS011;27703;51.980;5.848;2023-09-12T05:06:02;24.50;;;16.92;;
42018;SDS011;27703;51.980;5.848;2023-09-12T05:08:28;21.55;;;16.75;;
42018;SDS011;27703;51.980;5.848;2023-09-12T05:10:54;23.48;;;16.27;;
42018;SDS011;27703;51.980;5.848;2023-09-12T05:13:20;24.30;;;17.60;;
42018;SDS011;27703;51.980;5.848;2023-09-12T05:15:46;19.67;;;15.82;;
42018;SDS011;27703;51.980;5.848;2023-09-12T05:18:12;23.23;;;16.23;;
42018;SDS011;27703;51.980;5.848;2023-09-12T05:20:38;21.55;;;17.17;;
42018;SDS011;27703;51.980;5.848;2023-09-12T05:23:03;21.90;;;17.30;;
42018;SDS011;27703;51.980;5.848;2023-09-12T05:25:29;19.50;;;15.23;;
42018;SDS011;27703;51.980;5.848;2023-09-12T05:27:55;24.25;;;16.35;;
42018;SDS011;27703;51.980;5.848;2023-09-12T05:30:20;20.80;;;15.35;;
42018;SDS011;27703;51.980;5.848;2023-09-12T05:32:46;24.48;;;16.05;;
42018;SDS011;27703;51.980;5.848;2023-09-12T05:35:11;19.38;;;14.80;;
42018;SDS011;27703;51.980;5.848;2023-09-12T05:37:37;16.75;;;13.65;;
42018;SDS011;27703;51.980;5.848;2023-09-12T05:40:03;16.40;;;14.10;;
42018;SDS011;27703;51.980;5.848;2023-09-12T05:42:29;15.55;;;12.35;;
42018;SDS011;27703;51.980;5.848;2023-09-12T05:44:54;16.60;;;14.13;;
42018;SDS011;27703;51.980;5.848;2023-09-12T05:47:21;14.73;;;12.32;;
42018;SDS011;27703;51.980;5.848;2023-09-12T05:49:47;13.50;;;12.10;;
42018;SDS011;27703;51.980;5.848;2023-09-12T05:52:13;16.40;;;13.13;;
42018;SDS011;27703;51.980;5.848;2023-09-12T05:54:39;19.42;;;13.73;;
42018;SDS011;27703;51.980;5.848;2023-09-12T05:57:06;18.33;;;15.00;;
42018;SDS011;27703;51.980;5.848;2023-09-12T05:59:32;21.58;;;15.25;;
42018;SDS011;27703;51.980;5.848;2023-09-12T06:01:58;21.17;;;15.32;;
42018;SDS011;27703;51.980;5.848;2023-09-12T06:04:23;20.35;;;15.18;;
42018;SDS011;27703;51.980;5.848;2023-09-12T06:06:49;21.95;;;15.57;;
42018;SDS011;27703;51.980;5.848;2023-09-12T06:09:14;19.83;;;14.65;;
42018;SDS011;27703;51.980;5.848;2023-09-12T06:11:40;21.85;;;16.02;;
42018;SDS011;27703;51.980;5.848;2023-09-12T06:14:05;22.77;;;15.65;;
42018;SDS011;27703;51.980;5.848;2023-09-12T06:16:31;21.35;;;16.25;;
42018;SDS011;27703;51.980;5.848;2023-09-12T06:18:56;21.70;;;16.17;;
42018;SDS011;27703;51.980;5.848;2023-09-12T06:21:22;26.30;;;19.90;;
42018;SDS011;27703;51.980;5.848;2023-09-12T06:23:48;24.65;;;16.67;;
42018;SDS011;27703;51.980;5.848;2023-09-12T06:26:32;19.50;;;15.68;;
42018;SDS011;27703;51.980;5.848;2023-09-12T06:28:58;23.10;;;15.95;;
42018;SDS011;27703;51.980;5.848;2023-09-12T06:31:24;21.88;;;16.92;;
42018;SDS011;27703;51.980;5.848;2023-09-12T06:33:49;23.88;;;17.88;;
42018;SDS011;27703;51.980;5.848;2023-09-12T06:36:15;27.45;;;21.10;;
42018;SDS011;27703;51.980;5.848;2023-09-12T06:38:40;30.40;;;21.88;;
42018;SDS011;27703;51.980;5.848;2023-09-12T06:41:06;25.95;;;20.63;;
42018;SDS011;27703;51.980;5.848;2023-09-12T06:43:31;30.40;;;20.95;;
42018;SDS011;27703;51.980;5.848;2023-09-12T06:45:57;31.38;;;23.38;;
42018;SDS011;27703;51.980;5.848;2023-09-12T06:48:22;34.50;;;25.88;;
42018;SDS011;27703;51.980;5.848;2023-09-12T06:50:48;37.65;;;26.42;;
42018;SDS011;27703;51.980;5.848;2023-09-12T06:53:15;31.85;;;23.10;;
42018;SDS011;27703;51.980;5.848;2023-09-12T06:55:40;35.35;;;23.95;;
42018;SDS011;27703;51.980;5.848;2023-09-12T06:58:06;30.27;;;22.60;;
42018;SDS011;27703;51.980;5.848;2023-09-12T07:00:32;29.35;;;22.33;;
42018;SDS011;27703;51.980;5.848;2023-09-12T07:02:58;35.20;;;24.90;;
42018;SDS011;27703;51.980;5.848;2023-09-12T07:05:24;30.52;;;20.35;;
42018;SDS011;27703;51.980;5.848;2023-09-12T07:07:49;27.05;;;21.05;;
42018;SDS011;27703;51.980;5.848;2023-09-12T07:10:15;29.80;;;20.08;;
42018;SDS011;27703;51.980;5.848;2023-09-12T07:12:40;30.17;;;22.48;;
42018;SDS011;27703;51.980;5.848;2023-09-12T07:15:06;30.20;;;22.27;;
42018;SDS011;27703;51.980;5.848;2023-09-12T07:17:32;35.08;;;24.67;;
42018;SDS011;27703;51.980;5.848;2023-09-12T07:19:57;33.10;;;23.85;;
42018;SDS011;27703;51.980;5.848;2023-09-12T07:22:23;31.95;;;23.13;;
42018;SDS011;27703;51.980;5.848;2023-09-12T07:24:48;33.22;;;24.08;;
42018;SDS011;27703;51.980;5.848;2023-09-12T07:27:14;30.30;;;21.60;;
42018;SDS011;27703;51.980;5.848;2023-09-12T07:29:39;30.23;;;22.42;;
42018;SDS011;27703;51.980;5.848;2023-09-12T07:32:05;32.88;;;24.17;;
42018;SDS011;27703;51.980;5.848;2023-09-12T07:34:31;30.63;;;22.80;;
42018;SDS011;27703;51.980;5.848;2023-09-12T07:36:56;29.40;;;22.38;;
42018;SDS011;27703;51.980;5.848;2023-09-12T07:39:22;34.38;;;24.30;;
42018;SDS011;27703;51.980;5.848;2023-09-12T07:41:48;30.27;;;23.02;;
42018;SDS011;27703;51.980;5.848;2023-09-12T07:44:13;30.50;;;23.45;;
42018;SDS011;27703;51.980;5.848;2023-09-12T07:46:40;35.30;;;23.75;;
42018;SDS011;27703;51.980;5.848;2023-09-12T07:49:06;37.17;;;23.95;;
42018;SDS011;27703;51.980;5.848;2023-09-12T07:51:34;33.78;;;25.15;;
42018;SDS011;27703;51.980;5.848;2023-09-12T07:54:00;32.35;;;22.05;;
42018;SDS011;27703;51.980;5.848;2023-09-12T07:56:26;32.97;;;22.00;;
42018;SDS011;27703;51.980;5.848;2023-09-12T07:58:51;31.55;;;22.58;;
42018;SDS011;27703;51.980;5.848;2023-09-12T08:01:17;34.28;;;25.02;;
42018;SDS011;27703;51.980;5.848;2023-09-12T08:03:42;33.95;;;23.88;;
42018;SDS011;27703;51.980;5.848;2023-09-12T08:06:09;31.67;;;22.25;;
42018;SDS011;27703;51.980;5.848;2023-09-12T08:08:35;40.45;;;28.13;;
42018;SDS011;27703;51.980;5.848;2023-09-12T08:11:00;34.65;;;25.40;;
42018;SDS011;27703;51.980;5.848;2023-09-12T08:13:27;39.72;;;28.65;;
42018;SDS011;27703;51.980;5.848;2023-09-12T08:15:54;37.88;;;26.38;;
42018;SDS011;27703;51.980;5.848;2023-09-12T08:18:20;34.72;;;26.00;;
42018;SDS011;27703;51.980;5.848;2023-09-12T08:20:46;34.92;;;25.35;;
42018;SDS011;27703;51.980;5.848;2023-09-12T08:23:12;37.40;;;24.90;;
42018;SDS011;27703;51.980;5.848;2023-09-12T08:25:38;45.80;;;31.63;;
42018;SDS011;27703;51.980;5.848;2023-09-12T08:28:04;40.65;;;27.92;;
42018;SDS011;27703;51.980;5.848;2023-09-12T08:30:30;36.22;;;27.30;;
42018;SDS011;27703;51.980;5.848;2023-09-12T08:32:55;37.90;;;26.52;;
42018;SDS011;27703;51.980;5.848;2023-09-12T08:35:21;36.90;;;25.80;;
42018;SDS011;27703;51.980;5.848;2023-09-12T08:37:47;30.35;;;23.15;;
42018;SDS011;27703;51.980;5.848;2023-09-12T08:40:13;39.55;;;26.75;;
42018;SDS011;27703;51.980;5.848;2023-09-12T08:42:39;34.20;;;26.02;;
42018;SDS011;27703;51.980;5.848;2023-09-12T08:45:08;36.92;;;27.77;;
42018;SDS011;27703;51.980;5.848;2023-09-12T08:47:39;31.42;;;22.98;;
42018;SDS011;27703;51.980;5.848;2023-09-12T08:50:07;27.85;;;21.13;;
42018;SDS011;27703;51.980;5.848;2023-09-12T08:52:37;27.02;;;20.55;;
42018;SDS011;27703;51.980;5.848;2023-09-12T08:55:02;29.02;;;21.13;;
42018;SDS011;27703;51.980;5.848;2023-09-12T08:57:29;35.40;;;23.75;;
42018;SDS011;27703;51.980;5.848;2023-09-12T08:59:57;28.98;;;22.27;;
42018;SDS011;27703;51.980;5.848;2023-09-12T09:02:25;33.55;;;25.02;;
42018;SDS011;27703;51.980;5.848;2023-09-12T09:04:51;28.63;;;21.85;;
42018;SDS011;27703;51.980;5.848;2023-09-12T09:07:17;26.63;;;20.67;;
42018;SDS011;27703;51.980;5.848;2023-09-12T09:09:45;23.42;;;19.15;;
42018;SDS011;27703;51.980;5.848;2023-09-12T09:12:11;22.25;;;17.35;;
42018;SDS011;27703;51.980;5.848;2023-09-12T09:14:37;23.00;;;17.05;;
42018;SDS011;27703;51.980;5.848;2023-09-12T09:17:02;23.05;;;17.00;;
42018;SDS011;27703;51.980;5.848;2023-09-12T09:19:41;19.25;;;15.25;;
42018;SDS011;27703;51.980;5.848;2023-09-12T09:22:07;18.38;;;14.50;;
42018;SDS011;27703;51.980;5.848;2023-09-12T09:24:33;21.50;;;17.52;;
42018;SDS011;27703;51.980;5.848;2023-09-12T09:26:59;24.00;;;16.27;;
42018;SDS011;27703;51.980;5.848;2023-09-12T09:29:26;19.70;;;15.70;;
42018;SDS011;27703;51.980;5.848;2023-09-12T09:31:56;17.83;;;14.30;;
42018;SDS011;27703;51.980;5.848;2023-09-12T09:34:23;29.80;;;24.00;;
42018;SDS011;27703;51.980;5.848;2023-09-12T09:36:49;28.30;;;22.65;;
42018;SDS011;27703;51.980;5.848;2023-09-12T09:39:17;28.58;;;20.88;;
42018;SDS011;27703;51.980;5.848;2023-09-12T09:41:46;34.20;;;24.65;;
42018;SDS011;27703;51.980;5.848;2023-09-12T09:44:16;27.85;;;19.98;;
42018;SDS011;27703;51.980;5.848;2023-09-12T09:46:42;25.13;;;19.00;;
42018;SDS011;27703;51.980;5.848;2023-09-12T09:49:15;27.40;;;21.15;;
42018;SDS011;27703;51.980;5.848;2023-09-12T09:51:42;23.40;;;17.95;;
42018;SDS011;27703;51.980;5.848;2023-09-12T09:54:09;20.70;;;16.27;;
42018;SDS011;27703;51.980;5.848;2023-09-12T09:56:48;19.23;;;15.60;;
42018;SDS011;27703;51.980;5.848;2023-09-12T09:59:16;19.67;;;16.73;;
42018;SDS011;27703;51.980;5.848;2023-09-12T10:01:44;20.08;;;15.15;;
42018;SDS011;27703;51.980;5.848;2023-09-12T10:04:10;20.33;;;18.23;;
42018;SDS011;27703;51.980;5.848;2023-09-12T10:06:36;18.33;;;15.02;;
42018;SDS011;27703;51.980;5.848;2023-09-12T10:09:07;19.60;;;15.02;;
42018;SDS011;27703;51.980;5.848;2023-09-12T10:11:35;21.05;;;16.98;;
42018;SDS011;27703;51.980;5.848;2023-09-12T10:14:04;12.65;;;11.18;;
42018;SDS011;27703;51.980;5.848;2023-09-12T10:16:31;17.80;;;13.40;;
42018;SDS011;27703;51.980;5.848;2023-09-12T10:19:10;15.93;;;13.13;;
42018;SDS011;27703;51.980;5.848;2023-09-12T10:24:28;9.30;;;7.00;;
42018;SDS011;27703;51.980;5.848;2023-09-12T10:26:55;6.72;;;5.28;;
42018;SDS011;27703;51.980;5.848;2023-09-12T10:29:22;8.30;;;6.65;;
42018;SDS011;27703;51.980;5.848;2023-09-12T10:31:48;8.05;;;6.15;;
42018;SDS011;27703;51.980;5.848;2023-09-12T10:34:15;7.93;;;7.10;;
42018;SDS011;27703;51.980;5.848;2023-09-12T10:36:42;7.57;;;6.18;;
42018;SDS011;27703;51.980;5.848;2023-09-12T10:39:08;9.23;;;7.00;;
42018;SDS011;27703;51.980;5.848;2023-09-12T10:41:38;8.80;;;5.50;;
42018;SDS011;27703;51.980;5.848;2023-09-12T10:44:06;6.63;;;5.63;;
42018;SDS011;27703;51.980;5.848;2023-09-12T10:49:06;7.95;;;7.15;;
42018;SDS011;27703;51.980;5.848;2023-09-12T10:51:39;12.95;;;9.70;;
42018;SDS011;27703;51.980;5.848;2023-09-12T10:54:09;13.85;;;10.70;;
42018;SDS011;27703;51.980;5.848;2023-09-12T10:56:39;12.13;;;9.48;;
42018;SDS011;27703;51.980;5.848;2023-09-12T11:01:35;7.70;;;6.15;;
42018;SDS011;27703;51.980;5.848;2023-09-12T11:06:48;7.82;;;6.15;;
42018;SDS011;27703;51.980;5.848;2023-09-12T11:12:03;9.63;;;8.25;;
42018;SDS011;27703;51.980;5.848;2023-09-12T11:14:28;13.95;;;8.90;;
42018;SDS011;27703;51.980;5.848;2023-09-12T11:20:06;11.52;;;6.53;;
42018;SDS011;27703;51.980;5.848;2023-09-12T11:22:30;8.88;;;6.65;;
42018;SDS011;27703;51.980;5.848;2023-09-12T11:24:57;6.43;;;4.88;;
42018;SDS011;27703;51.980;5.848;2023-09-12T11:27:31;7.95;;;6.25;;
42018;SDS011;27703;51.980;5.848;2023-09-12T11:30:04;7.65;;;6.43;;
42018;SDS011;27703;51.980;5.848;2023-09-12T11:32:31;5.97;;;4.85;;
42018;SDS011;27703;51.980;5.848;2023-09-12T11:35:04;8.60;;;7.70;;
42018;SDS011;27703;51.980;5.848;2023-09-12T11:37:33;7.00;;;5.20;;
42018;SDS011;27703;51.980;5.848;2023-09-12T11:40:02;4.30;;;3.90;;
42018;SDS011;27703;51.980;5.848;2023-09-12T11:42:41;5.53;;;3.50;;
42018;SDS011;27703;51.980;5.848;2023-09-12T11:45:08;6.78;;;4.72;;
42018;SDS011;27703;51.980;5.848;2023-09-12T11:47:39;9.75;;;6.75;;
42018;SDS011;27703;51.980;5.848;2023-09-12T11:52:31;10.75;;;8.10;;
42018;SDS011;27703;51.980;5.848;2023-09-12T11:57:28;13.15;;;10.38;;
42018;SDS011;27703;51.980;5.848;2023-09-12T11:59:54;10.43;;;8.57;;
42018;SDS011;27703;51.980;5.848;2023-09-12T12:02:21;10.52;;;8.70;;
42018;SDS011;27703;51.980;5.848;2023-09-12T12:04:47;18.73;;;11.65;;
42018;SDS011;27703;51.980;5.848;2023-09-12T12:07:13;13.50;;;9.50;;
42018;SDS011;27703;51.980;5.848;2023-09-12T12:09:39;11.02;;;8.80;;
42018;SDS011;27703;51.980;5.848;2023-09-12T12:12:11;7.75;;;6.22;;
42018;SDS011;27703;51.980;5.848;2023-09-12T12:14:38;8.40;;;6.13;;
42018;SDS011;27703;51.980;5.848;2023-09-12T12:17:08;5.28;;;4.78;;
42018;SDS011;27703;51.980;5.848;2023-09-12T12:19:34;5.65;;;4.70;;
42018;SDS011;27703;51.980;5.848;2023-09-12T12:22:04;6.05;;;3.45;;
42018;SDS011;27703;51.980;5.848;2023-09-12T12:24:41;3.85;;;2.72;;
42018;SDS011;27703;51.980;5.848;2023-09-12T12:27:09;3.42;;;2.40;;
42018;SDS011;27703;51.980;5.848;2023-09-12T12:29:36;3.17;;;2.17;;
42018;SDS011;27703;51.980;5.848;2023-09-12T12:32:04;7.65;;;3.92;;
42018;SDS011;27703;51.980;5.848;2023-09-12T12:34:30;4.03;;;3.20;;
42018;SDS011;27703;51.980;5.848;2023-09-12T12:36:56;4.22;;;2.17;;
42018;SDS011;27703;51.980;5.848;2023-09-12T12:39:22;4.20;;;2.10;;
42018;SDS011;27703;51.980;5.848;2023-09-12T12:41:48;6.60;;;3.00;;
42018;SDS011;27703;51.980;5.848;2023-09-12T12:44:19;3.55;;;2.92;;
42018;SDS011;27703;51.980;5.848;2023-09-12T12:46:49;3.03;;;2.53;;
42018;SDS011;27703;51.980;5.848;2023-09-12T12:49:18;6.57;;;4.90;;
42018;SDS011;27703;51.980;5.848;2023-09-12T12:51:45;4.53;;;3.72;;
42018;SDS011;27703;51.980;5.848;2023-09-12T12:54:12;3.78;;;3.00;;
42018;SDS011;27703;51.980;5.848;2023-09-12T12:56:38;6.82;;;3.65;;
42018;SDS011;27703;51.980;5.848;2023-09-12T12:59:05;6.07;;;4.95;;
42018;SDS011;27703;51.980;5.848;2023-09-12T13:01:33;6.43;;;4.43;;
42018;SDS011;27703;51.980;5.848;2023-09-12T13:04:00;3.70;;;3.28;;
42018;SDS011;27703;51.980;5.848;2023-09-12T13:06:25;4.15;;;3.20;;
42018;SDS011;27703;51.980;5.848;2023-09-12T13:08:53;3.60;;;3.30;;
42018;SDS011;27703;51.980;5.848;2023-09-12T13:11:18;6.18;;;3.15;;
42018;SDS011;27703;51.980;5.848;2023-09-12T13:13:45;5.30;;;3.78;;
42018;SDS011;27703;51.980;5.848;2023-09-12T13:16:14;10.07;;;6.03;;
42018;SDS011;27703;51.980;5.848;2023-09-12T13:18:40;4.78;;;3.80;;
42018;SDS011;27703;51.980;5.848;2023-09-12T13:21:06;7.00;;;4.13;;
42018;SDS011;27703;51.980;5.848;2023-09-12T13:23:35;3.38;;;2.88;;
42018;SDS011;27703;51.980;5.848;2023-09-12T13:26:02;5.28;;;2.65;;
42018;SDS011;27703;51.980;5.848;2023-09-12T13:28:28;7.38;;;4.38;;
42018;SDS011;27703;51.980;5.848;2023-09-12T13:30:54;6.28;;;4.68;;
42018;SDS011;27703;51.980;5.848;2023-09-12T13:33:20;4.25;;;2.63;;
42018;SDS011;27703;51.980;5.848;2023-09-12T13:35:48;2.53;;;2.30;;
42018;SDS011;27703;51.980;5.848;2023-09-12T13:38:14;4.65;;;2.40;;
42018;SDS011;27703;51.980;5.848;2023-09-12T13:40:42;3.90;;;1.95;;
42018;SDS011;27703;51.980;5.848;2023-09-12T13:43:08;4.47;;;2.10;;
42018;SDS011;27703;51.980;5.848;2023-09-12T13:45:34;2.97;;;1.95;;
42018;SDS011;27703;51.980;5.848;2023-09-12T13:48:00;3.88;;;2.22;;
42018;SDS011;27703;51.980;5.848;2023-09-12T13:50:30;4.75;;;3.28;;
42018;SDS011;27703;51.980;5.848;2023-09-12T13:52:57;6.82;;;5.00;;
42018;SDS011;27703;51.980;5.848;2023-09-12T13:55:24;5.30;;;3.28;;
42018;SDS011;27703;51.980;5.848;2023-09-12T13:57:50;8.95;;;4.93;;
42018;SDS011;27703;51.980;5.848;2023-09-12T14:00:16;5.72;;;3.83;;
42018;SDS011;27703;51.980;5.848;2023-09-12T14:02:41;6.15;;;3.13;;
42018;SDS011;27703;51.980;5.848;2023-09-12T14:05:07;3.65;;;1.88;;
42018;SDS011;27703;51.980;5.848;2023-09-12T14:07:32;2.53;;;1.50;;
42018;SDS011;27703;51.980;5.848;2023-09-12T14:09:58;3.13;;;2.25;;
42018;SDS011;27703;51.980;5.848;2023-09-12T14:12:24;4.78;;;2.53;;
42018;SDS011;27703;51.980;5.848;2023-09-12T14:14:51;3.20;;;1.50;;
42018;SDS011;27703;51.980;5.848;2023-09-12T14:17:17;2.75;;;1.80;;
42018;SDS011;27703;51.980;5.848;2023-09-12T14:19:43;1.92;;;1.40;;
42018;SDS011;27703;51.980;5.848;2023-09-12T14:22:08;2.35;;;1.65;;
42018;SDS011;27703;51.980;5.848;2023-09-12T14:24:34;6.50;;;3.17;;
42018;SDS011;27703;51.980;5.848;2023-09-12T14:26:59;2.72;;;2.03;;
42018;SDS011;27703;51.980;5.848;2023-09-12T14:29:25;5.13;;;2.05;;
42018;SDS011;27703;51.980;5.848;2023-09-12T14:31:54;2.00;;;1.55;;
42018;SDS011;27703;51.980;5.848;2023-09-12T14:34:25;3.45;;;1.45;;
42018;SDS011;27703;51.980;5.848;2023-09-12T14:36:56;2.65;;;1.13;;
42018;SDS011;27703;51.980;5.848;2023-09-12T14:39:22;3.05;;;1.40;;
42018;SDS011;27703;51.980;5.848;2023-09-12T14:41:49;3.50;;;1.70;;
42018;SDS011;27703;51.980;5.848;2023-09-12T14:44:25;1.95;;;1.20;;
42018;SDS011;27703;51.980;5.848;2023-09-12T14:46:52;1.92;;;0.85;;
42018;SDS011;27703;51.980;5.848;2023-09-12T14:49:18;3.53;;;1.50;;
42018;SDS011;27703;51.980;5.848;2023-09-12T14:51:44;3.00;;;1.42;;
42018;SDS011;27703;51.980;5.848;2023-09-12T14:54:10;2.20;;;0.85;;
42018;SDS011;27703;51.980;5.848;2023-09-12T14:56:35;2.33;;;1.10;;